Time;durP1;ratioP1;P1;durP2;ratioP2;P2;SDS_P1;SDS_P2;PMS_P1;PMS_P2;Temp;Humidity;BMP_temperature;BMP_pressure;BME280_temperature;BME280_humidity;BME280_pressure;Samples;Min_cycle;Max_cycle;Signal;HPM_P1;HPM_P2
2021/12/10 11:53:06;;;;;;;9.73;5.80;;;;;;;;;;6155224;22;1975129;-88
2021/12/10 11:55:33;;;;;;;8.40;5.30;;;;;;;;;;6218878;23;20387;-91
2021/12/10 11:57:59;;;;;;;9.60;5.47;;;;;;;;;;6219152;23;20896;-90
2021/12/10 12:00:30;;;;;;;7.88;5.35;;;;;;;;;;6193639;23;20383;-90
2021/12/10 12:02:58;;;;;;;8.80;6.13;;;;;;;;;;6219818;23;20400;-91
2021/12/10 12:05:26;;;;;;;8.88;6.10;;;;;;;;;;6189464;23;20375;-86
2021/12/10 12:07:53;;;;;;;9.13;5.47;;;;;;;;;;6210194;23;20463;-88
2021/12/10 12:10:23;;;;;;;11.23;5.65;;;;;;;;;;6186874;23;20368;-88
2021/12/10 12:12:52;;;;;;;9.68;5.45;;;;;;;;;;6210784;23;20387;-87
2021/12/10 12:15:22;;;;;;;8.43;5.10;;;;;;;;;;6213831;23;20387;-88
2021/12/10 12:17:52;;;;;;;9.10;4.80;;;;;;;;;;6213358;23;20399;-88
2021/12/10 12:20:31;;;;;;;7.77;4.80;;;;;;;;;;6187584;23;20997;-88
2021/12/10 12:26:06;;;;;;;25.35;13.68;;;;;;;;;;6213335;23;20395;-89
2021/12/10 12:28:33;;;;;;;10.43;5.50;;;;;;;;;;6213496;23;20462;-89
2021/12/10 12:31:05;;;;;;;8.80;5.32;;;;;;;;;;6163604;23;20364;-90
2021/12/10 12:33:50;;;;;;;21.92;11.88;;;;;;;;;;6214192;23;20528;-94
2021/12/10 12:36:16;;;;;;;10.60;6.57;;;;;;;;;;6224160;23;20364;-91
2021/12/10 12:38:49;;;;;;;9.80;5.53;;;5.20;99.90;;;;;;6194032;23;20391;-87
2021/12/10 12:41:18;;;;;;;9.60;5.20;;;;;;;;;;6193969;23;20453;-91
2021/12/10 12:43:46;;;;;;;8.15;5.10;;;;;;;;;;6219002;23;20401;-92
2021/12/10 12:46:12;;;;;;;8.75;5.07;;;;;;;;;;6221449;23;20375;-88
2021/12/10 12:48:52;;;;;;;8.30;5.20;;;;;;;;;;6197016;23;20372;-88
2021/12/10 12:51:21;;;;;;;8.48;5.00;;;;;;;;;;6194853;23;20371;-89
2021/12/10 12:53:48;;;;;;;11.15;5.38;;;;;;;;;;6225915;23;20841;-88
2021/12/10 12:56:15;;;;;;;8.15;4.82;;;;;;;;;;6200452;23;20428;-86
2021/12/10 12:58:41;;;;;;;10.35;5.35;;;;;;;;;;6200787;23;20400;-85
2021/12/10 13:01:11;;;;;;;9.88;4.72;;;;;;;;;;6226286;23;20366;-88
2021/12/10 13:03:43;;;;;;;10.40;4.80;;;;;;;;;;6199624;23;20400;-89
2021/12/10 13:06:19;;;;;;;9.00;4.97;;;;;;;;;;6200931;23;20743;-88
2021/12/10 13:08:47;;;;;;;7.47;4.45;;;;;;;;;;6221954;23;20382;-88
2021/12/10 13:11:24;;;;;;;9.18;4.70;;;;;;;;;;6199192;23;20370;-87
2021/12/10 13:13:52;;;;;;;7.47;4.50;;;;;;;;;;6223413;23;20378;-88
2021/12/10 13:16:30;;;;;;;10.20;4.40;;;;;;;;;;6198719;23;20386;-87
2021/12/10 13:18:56;;;;;;;7.90;4.43;;;;;;;;;;6198520;23;20386;-88
2021/12/10 13:21:23;;;;;;;8.13;4.60;;;;;;;;;;6222647;23;20366;-88
2021/12/10 13:23:49;;;;;;;9.38;4.75;;;;;;;;;;6223578;23;20409;-87
2021/12/10 13:26:15;;;;;;;9.17;4.77;;;;;;;;;;6198288;23;20432;-86
2021/12/10 13:28:41;;;;;;;8.00;4.18;;;;;;;;;;6224426;23;20626;-86
2021/12/10 13:31:10;;;;;;;8.82;4.50;;;;;;;;;;6224371;23;20416;-88
2021/12/10 13:33:37;;;;;;;10.45;5.65;;;;;;;;;;6199472;23;20394;-88
2021/12/10 13:36:05;;;;;;;10.50;4.63;;;;;;;;;;6199597;23;20381;-87
2021/12/10 13:38:33;;;;;;;8.10;4.63;;;;;;;;;;6222014;23;20535;-86
2021/12/10 13:41:00;;;;;;;9.35;5.00;;;;;;;;;;6222349;23;20370;-88
2021/12/10 13:43:26;;;;;;;9.85;5.53;;;;;;;;;;6223525;23;20394;-87
2021/12/10 13:45:59;;;;;;;11.35;5.88;;;5.20;99.90;;;;;;6224346;23;20366;-88
2021/12/10 13:48:56;;;;;;;10.18;5.32;;;;;;;;;;6200848;23;20944;-86
2021/12/10 13:51:24;;;;;;;9.95;5.50;;;;;;;;;;6170139;23;20385;-87
2021/12/10 13:53:58;;;;;;;14.37;6.70;;;;;;;;;;6224937;23;20726;-87
2021/12/10 13:56:24;;;;;;;15.07;7.63;;;;;;;;;;6226431;23;20374;-86
2021/12/10 13:59:01;;;;;;;13.83;6.63;;;;;;;;;;6201060;23;20464;-87
2021/12/10 14:01:30;;;;;;;11.35;5.93;;;;;;;;;;6226471;23;20385;-86
2021/12/10 14:03:56;;;;;;;9.57;5.40;;;;;;;;;;6200522;23;20374;-86
2021/12/10 14:06:26;;;;;;;9.82;5.28;;;;;;;;;;6263555;23;20362;-86
2021/12/10 14:09:12;;;;;;;10.90;6.22;;;;;;;;;;6211620;23;20401;-86
2021/12/10 14:11:56;;;;;;;10.95;6.53;;;;;;;;;;6204365;23;20640;-86
2021/12/10 14:14:32;;;;;;;9.52;6.03;;;;;;;;;;6229199;23;20369;-86
2021/12/10 14:17:00;;;;;;;11.67;6.20;;;;;;;;;;6226615;23;20384;-86
2021/12/10 14:19:29;;;;;;;13.37;8.00;;;;;;;;;;6200851;23;20378;-87
2021/12/10 14:21:56;;;;;;;10.82;5.40;;;;;;;;;;6218712;23;20937;-88
2021/12/10 14:24:34;;;;;;;11.60;5.35;;;;;;;;;;6166771;23;20374;-87
2021/12/10 14:27:20;;;;;;;10.52;5.80;;;;;;;;;;6217464;23;20374;-87
2021/12/10 14:30:06;;;;;;;11.17;5.73;;;;;;;;;;6214543;23;20374;-88
2021/12/10 14:32:32;;;;;;;9.20;4.90;;;;;;;;;;6192386;23;20444;-89
2021/12/10 14:35:11;;;;;;;9.73;5.00;;;;;;;;;;6192060;23;21000;-88
2021/12/10 14:37:54;;;;;;;7.82;4.85;;;;;;;;;;6218758;23;20390;-87
2021/12/10 14:40:22;;;;;;;10.25;5.35;;;;;;;;;;6217006;23;20370;-88
2021/12/10 14:43:21;;;;;;;9.70;5.78;;;;;;;;;;6192414;23;20453;-87
2021/12/10 14:46:13;;;;;;;10.38;6.25;;;;;;;;;;6113354;23;20977;-87
2021/12/10 14:48:59;;;;;;;10.35;5.88;;;;;;;;;;6187074;23;20405;-87
2021/12/10 14:51:25;;;;;;;12.20;5.78;;;;;;;;;;6196398;23;20743;-86
2021/12/10 14:53:54;;;;;;;10.63;5.65;;;;;;;;;;6220166;23;20446;-86
2021/12/10 14:56:23;;;;;;;11.35;5.97;;;;;;;;;;6219106;23;20392;-86
2021/12/10 14:59:08;;;;;;;11.90;5.78;;;;;;;;;;6193943;23;20403;-85
2021/12/10 15:01:37;;;;;;;12.93;6.07;;;;;;;;;;6221494;23;20386;-86
2021/12/10 15:04:18;;;;;;;12.32;6.20;;;;;;;;;;6220634;23;20463;-89
2021/12/10 15:06:57;;;;;;;18.40;12.05;;;;;;;;;;6195490;23;20408;-88
2021/12/10 15:09:24;;;;;;;18.63;13.73;;;;;;;;;;6219610;23;20383;-88
2021/12/10 15:11:52;;;;;;;15.57;9.02;;;;;;;;;;6219955;23;20368;-89
2021/12/10 15:14:39;;;;;;;23.42;14.10;;;;;;;;;;6220235;23;20395;-89
2021/12/10 15:17:06;;;;;;;19.60;11.80;;;;;;;;;;6193771;23;20463;-91
2021/12/10 15:19:34;;;;;;;12.82;8.38;;;;;;;;;;6220919;23;20372;-86
2021/12/10 15:22:02;;;;;;;14.38;8.00;;;;;;;;;;6220403;23;20845;-86
2021/12/10 15:24:36;;;;;;;12.75;8.32;;;;;;;;;;6195740;23;20375;-88
2021/12/10 15:27:09;;;;;;;13.00;8.52;;;;;;;;;;6221068;23;20394;-87
2021/12/10 15:29:44;;;;;;;13.57;8.73;;;;;;;;;;6193504;23;20720;-86
2021/12/10 15:32:13;;;;;;;13.57;7.03;;;;;;;;;;6219496;23;20403;-85
2021/12/10 15:34:48;;;;;;;12.27;7.18;;;;;;;;;;6219937;23;20402;-85
2021/12/10 15:37:16;;;;;;;15.37;8.77;;;;;;;;;;6220687;23;20399;-86
2021/12/10 15:39:45;;;;;;;14.70;8.95;;;;;;;;;;6221023;23;20380;-86
2021/12/10 15:42:15;;;;;;;16.02;8.45;;;;;;;;;;6218602;23;20375;-84
2021/12/10 15:44:41;;;;;;;11.43;7.35;;;;;;;;;;6195250;23;20407;-84
2021/12/10 15:47:08;;;;;;;11.35;7.53;;;;;;;;;;6218748;23;20431;-85
2021/12/10 15:49:34;;;;;;;14.00;9.00;;;;;;;;;;6219915;23;20374;-89
2021/12/10 15:52:03;;;;;;;16.13;9.88;;;;;;;;;;6194107;23;20857;-85
2021/12/10 15:54:32;;;;;;;14.77;9.07;;;;;;;;;;6218154;23;20535;-84
2021/12/10 15:57:00;;;;;;;19.17;10.45;;;;;;;;;;6218942;23;20691;-86
2021/12/10 15:59:28;;;;;;;21.40;10.57;;;;;;;;;;6218068;23;20946;-85
2021/12/10 16:01:55;;;;;;;15.52;9.65;;;;;;;;;;6219966;23;20726;-86
2021/12/10 16:04:36;;;;;;;23.80;11.45;;;;;;;;;;6193130;23;20367;-86
2021/12/10 16:07:03;;;;;;;15.05;8.80;;;;;;;;;;6219819;23;20379;-86
2021/12/10 16:09:30;;;;;;;13.32;8.52;;;;;;;;;;6218027;23;20392;-85
2021/12/10 16:11:57;;;;;;;12.93;9.02;;;;;;;;;;6218610;23;20368;-85
2021/12/10 16:14:34;;;;;;;13.38;9.23;;;;;;;;;;6219459;23;20372;-86
2021/12/10 16:17:01;;;;;;;14.07;9.45;;;;;;;;;;6192070;23;20830;-85
2021/12/10 16:19:29;;;;;;;15.50;9.97;;;;;;;;;;6220600;23;20402;-85
2021/12/10 16:22:01;;;;;;;13.65;9.80;;;;;;;;;;6220424;23;20371;-86
2021/12/10 16:24:30;;;;;;;16.10;10.90;;;;;;;;;;6195595;23;20426;-86
2021/12/10 16:27:04;;;;;;;20.08;12.45;;;;;;;;;;6195942;23;20463;-86
2021/12/10 16:29:33;;;;;;;17.67;12.50;;;;;;;;;;6220462;23;20376;-85
2021/12/10 16:32:01;;;;;;;18.43;11.77;;;;;;;;;;6218100;23;20395;-85
2021/12/10 16:34:28;;;;;;;17.77;11.57;;;;;;;;;;6190619;23;20376;-86
2021/12/10 16:36:56;;;;;;;19.55;11.80;;;;;;;;;;6194096;23;20372;-86
2021/12/10 16:39:22;;;;;;;21.60;14.07;;;;;;;;;;6221952;23;20367;-86
2021/12/10 16:41:51;;;;;;;18.98;12.43;;;;;;;;;;6197694;23;20371;-86
2021/12/10 16:44:18;;;;;;;18.27;11.20;;;;;;;;;;6224233;23;20379;-85
2021/12/10 16:46:47;;;;;;;18.65;11.20;;;;;;;;;;6223877;23;20394;-86
2021/12/10 16:49:15;;;;;;;15.52;10.63;;;;;;;;;;6228427;23;20423;-86
2021/12/10 16:51:44;;;;;;;18.77;11.57;;;;;;;;;;6227777;23;20372;-87
2021/12/10 16:54:15;;;;;;;19.48;11.52;;;;;;;;;;6221457;23;20876;-86
2021/12/10 16:56:43;;;;;;;16.90;11.60;;;;;;;;;;6194292;23;21018;-85
2021/12/10 16:59:12;;;;;;;18.98;12.18;;;;;;;;;;6215357;23;20895;-86
2021/12/10 17:01:44;;;;;;;21.33;13.70;;;;;;;;;;6218793;23;20407;-86
2021/12/10 17:04:12;;;;;;;19.65;13.32;;;;;;;;;;6214655;23;20384;-84
2021/12/10 17:06:42;;;;;;;21.15;15.07;;;;;;;;;;6216711;23;20367;-84
2021/12/10 17:09:09;;;;;;;24.40;18.02;;;;;;;;;;6190708;23;20372;-84
2021/12/10 17:11:37;;;;;;;24.10;17.30;;;;;;;;;;6215044;23;20375;-83
2021/12/10 17:14:07;;;;;;;22.25;16.40;;;;;;;;;;6215971;23;20372;-85
2021/12/10 17:16:38;;;;;;;23.13;16.73;;;;;;;;;;6189926;23;20404;-87
2021/12/10 17:19:06;;;;;;;21.83;15.43;;;;;;;;;;6216420;23;20400;-88
2021/12/10 17:21:38;;;;;;;23.65;15.20;;;;;;;;;;6215193;23;20367;-89
2021/12/10 17:24:06;;;;;;;22.30;15.65;;;;;;;;;;6217658;23;20384;-86
2021/12/10 17:26:34;;;;;;;21.38;15.40;;;;;;;;;;6215008;23;20372;-87
2021/12/10 17:29:06;;;;;;;22.30;15.02;;;;;;;;;;6215937;23;20376;-88
2021/12/10 17:31:35;;;;;;;25.05;16.60;;;;;;;;;;6215659;23;20376;-87
2021/12/10 17:34:07;;;;;;;24.63;17.17;;;;;;;;;;6215282;23;20367;-90
2021/12/10 17:36:45;;;;;;;25.98;18.48;;;;;;;;;;6218092;23;20399;-88
2021/12/10 17:39:38;;;;;;;29.17;19.88;;;;;;;;;;6194248;23;20392;-87
2021/12/10 17:42:07;;;;;;;29.63;20.55;;;;;;;;;;6188065;23;20376;-87
2021/12/10 17:44:36;;;;;;;29.88;19.65;;;;;;;;;;6196825;23;20762;-88
2021/12/10 17:47:05;;;;;;;29.30;18.02;;;;;;;;;;6219406;23;20420;-87
2021/12/10 17:49:35;;;;;;;31.98;20.05;;;;;;;;;;6218839;23;21010;-86
2021/12/10 17:52:04;;;;;;;24.55;15.45;;;;;;;;;;6191235;23;20878;-86
2021/12/10 17:54:33;;;;;;;20.88;13.02;;;;;;;;;;6219160;23;20467;-86
2021/12/10 17:56:59;;;;;;;25.10;14.15;;;;;;;;;;6216289;23;20375;-87
2021/12/10 17:59:27;;;;;;;20.15;13.15;;;;;;;;;;6190953;23;20368;-85
2021/12/10 18:01:57;;;;;;;20.60;12.80;;;;;;;;;;6194098;23;20421;-87
2021/12/10 18:04:24;;;;;;;19.83;13.37;;;;;;;;;;6192013;23;21014;-87
2021/12/10 18:06:53;;;;;;;22.63;12.50;;;;;;;;;;6218015;23;20430;-88
2021/12/10 18:09:28;;;;;;;19.58;12.70;;;;;;;;;;6194828;23;20368;-87
2021/12/10 18:11:58;;;;;;;20.58;12.50;;;;;;;;;;6194570;23;20383;-88
2021/12/10 18:14:33;;;;;;;21.77;13.25;;;;;;;;;;6220495;23;20380;-87
2021/12/10 18:16:59;;;;;;;23.20;14.30;;;;;;;;;;6220191;23;20383;-87
2021/12/10 18:19:25;;;;;;;20.33;13.00;;;;;;;;;;6222131;23;20407;-87
2021/12/10 18:21:58;;;;;;;21.85;13.35;;;;;;;;;;6194552;23;20364;-87
2021/12/10 18:24:25;;;;;;;21.85;13.57;;;;;;;;;;6195149;23;20386;-86
2021/12/10 18:26:53;;;;;;;21.73;13.65;;;;;;;;;;6220993;23;20458;-88
2021/12/10 18:29:24;;;;;;;21.23;13.38;;;;;;;;;;6220527;23;20378;-87
2021/12/10 18:31:53;;;;;;;21.88;14.13;;;;;;;;;;6219318;23;20849;-86
2021/12/10 18:34:21;;;;;;;24.52;16.17;;;;;;;;;;6218988;23;20398;-86
2021/12/10 18:36:48;;;;;;;23.98;14.50;;;;;;;;;;6220123;23;20670;-87
2021/12/10 18:39:16;;;;;;;24.25;14.75;;;;;;;;;;6193290;23;20792;-87
2021/12/10 18:41:46;;;;;;;25.63;16.13;;;;;;;;;;6191919;23;20372;-87
2021/12/10 18:44:21;;;;;;;25.25;16.85;;;;;;;;;;6220960;23;20433;-87
2021/12/10 18:46:49;;;;;;;23.92;15.82;;;;;;;;;;6221244;23;20462;-87
2021/12/10 18:49:15;;;;;;;26.53;18.53;;;;;;;;;;6196174;23;20383;-87
2021/12/10 18:51:45;;;;;;;23.70;17.03;;;;;;;;;;6193782;23;20455;-87
2021/12/10 18:54:14;;;;;;;26.63;17.30;;;;;;;;;;6194357;23;20387;-86
2021/12/10 18:56:43;;;;;;;27.73;19.07;;;;;;;;;;6220911;23;20390;-87
2021/12/10 18:59:11;;;;;;;26.42;16.67;;;;;;;;;;6221008;23;20403;-86
2021/12/10 19:01:41;;;;;;;23.35;16.10;;;;;;;;;;6221581;23;20379;-85
2021/12/10 19:04:17;;;;;;;28.58;17.40;;;;;;;;;;6193974;23;20375;-86
2021/12/10 19:06:45;;;;;;;29.40;18.52;;;;;;;;;;6219764;23;20378;-86
2021/12/10 19:09:16;;;;;;;28.25;18.50;;;;;;;;;;6217990;23;20856;-85
2021/12/10 19:11:45;;;;;;;27.60;17.98;;;;;;;;;;6218430;23;20371;-85
2021/12/10 19:14:11;;;;;;;28.98;17.83;;;;;;;;;;6193874;23;20376;-86
2021/12/10 19:16:41;;;;;;;29.30;17.90;;;;;;;;;;6218629;23;20382;-86
2021/12/10 19:19:10;;;;;;;26.42;17.45;;;;;;;;;;6193822;23;20407;-86
2021/12/10 19:21:43;;;;;;;27.70;17.63;;;;;;;;;;6217781;23;20375;-85
2021/12/10 19:24:16;;;;;;;27.77;17.30;;;;;;;;;;6193571;23;20722;-85
2021/12/10 19:26:44;;;;;;;27.00;16.55;;;;;;;;;;6217430;23;20372;-85
2021/12/10 19:29:13;;;;;;;27.53;17.43;;;;;;;;;;6218607;23;20403;-86
2021/12/10 19:31:49;;;;;;;30.50;17.87;;;;;;;;;;6220164;23;20394;-86
2021/12/10 19:34:25;;;;;;;36.95;23.20;;;;;;;;;;6218899;23;20371;-86
2021/12/10 19:36:54;;;;;;;39.53;23.52;;;;;;;;;;6222340;23;20434;-85
2021/12/10 19:39:23;;;;;;;39.38;25.52;;;;;;;;;;6221974;23;20376;-86
2021/12/10 19:41:52;;;;;;;44.63;27.88;;;;;;;;;;6194865;23;20450;-86
2021/12/10 19:44:20;;;;;;;36.37;25.20;;;;;;;;;;6219609;23;20404;-85
2021/12/10 19:46:52;;;;;;;34.05;22.25;;;;;;;;;;6217790;23;20375;-86
2021/12/10 19:49:26;;;;;;;31.35;19.50;;;;;;;;;;6222474;23;20394;-86
2021/12/10 19:51:55;;;;;;;32.60;19.77;;;;;;;;;;6197700;23;20399;-85
2021/12/10 19:54:29;;;;;;;26.90;17.77;;;;;;;;;;6199903;23;20474;-86
2021/12/10 19:56:58;;;;;;;28.35;18.50;;;;;;;;;;6195207;23;20372;-86
2021/12/10 19:59:29;;;;;;;26.20;18.27;;;;;;;;;;6218799;23;20375;-85
2021/12/10 20:02:15;;;;;;;29.60;18.05;;;;;;;;;;6219905;23;20383;-85
2021/12/10 20:04:45;;;;;;;33.95;19.50;;;;;;;;;;6201358;23;20382;-85
2021/12/10 20:07:12;;;;;;;33.70;20.15;;;;;;;;;;6219730;23;20861;-85
2021/12/10 20:09:38;;;;;;;28.65;18.85;;;;;;;;;;6196438;23;20374;-85
2021/12/10 20:12:06;;;;;;;29.35;18.33;;;;;;;;;;6219625;23;20707;-85
2021/12/10 20:14:39;;;;;;;28.77;17.85;;;;;;;;;;6219552;23;20367;-85
2021/12/10 20:17:18;;;;;;;31.63;18.20;;;;;;;;;;6193232;23;20382;-86
2021/12/10 20:19:47;;;;;;;30.70;19.13;;;;;;;;;;6219883;23;20372;-84
2021/12/10 20:22:28;;;;;;;33.72;22.48;;;;;;;;;;6193222;23;20386;-84
2021/12/10 20:25:03;;;;;;;37.78;24.67;;;;;;;;;;6217300;23;20379;-85
2021/12/10 20:27:42;;;;;;;33.97;22.17;;;;;;;;;;6219408;23;20462;-85
2021/12/10 20:30:13;;;;;;;32.53;21.00;;;;;;;;;;6217785;23;20421;-84
2021/12/10 20:32:42;;;;;;;30.98;20.33;;;;;;;;;;6218754;23;20436;-84
2021/12/10 20:35:15;;;;;;;33.78;21.77;;;;;;;;;;6216333;23;20411;-84
2021/12/10 20:37:43;;;;;;;34.30;21.92;;;;;;;;;;6216684;23;20396;-84
2021/12/10 20:40:13;;;;;;;31.07;20.70;;;;;;;;;;6217254;23;20758;-83
2021/12/10 20:42:44;;;;;;;31.63;20.42;;;;;;;;;;6218002;23;20379;-84
2021/12/10 20:45:17;;;;;;;31.30;20.08;;;;;;;;;;6217647;23;20375;-84
2021/12/10 20:47:46;;;;;;;37.38;21.25;;;;;;;;;;6217596;23;20434;-84
2021/12/10 20:50:15;;;;;;;34.90;21.20;;;;;;;;;;6218238;23;20401;-83
2021/12/10 20:52:51;;;;;;;32.72;20.27;;;;;;;;;;6220154;23;20380;-84
2021/12/10 20:55:21;;;;;;;49.97;24.90;;;;;;;;;;6197441;23;20389;-83
2021/12/10 20:57:48;;;;;;;37.65;21.13;;;;;;;;;;6224283;23;20401;-84
2021/12/10 21:00:19;;;;;;;31.25;19.65;;;;;;;;;;6225891;23;20878;-83
2021/12/10 21:02:48;;;;;;;33.45;19.92;;;;;;;;;;6230105;23;20378;-83
2021/12/10 21:05:17;;;;;;;33.80;20.83;;;;;;;;;;6228236;23;20736;-84
2021/12/10 21:07:45;;;;;;;33.75;20.20;;;;;;;;;;6227454;23;20393;-82
2021/12/10 21:10:23;;;;;;;32.00;19.63;;;;;;;;;;6226458;23;20382;-83
2021/12/10 21:12:51;;;;;;;30.40;18.13;;;;;;;;;;6224849;23;20378;-83
2021/12/10 21:15:23;;;;;;;36.40;19.55;;;;;;;;;;6225224;23;20381;-82
2021/12/10 21:17:54;;;;;;;31.85;19.77;;;;;;;;;;6225165;23;20402;-82
2021/12/10 21:20:30;;;;;;;39.83;23.73;;;;;;;;;;6225964;23;20398;-82
2021/12/10 21:22:57;;;;;;;39.43;23.50;;;;;;;;;;6198024;23;20437;-82
2021/12/10 21:25:31;;;;;;;36.05;20.90;;;;;;;;;;6198530;23;20523;-82
2021/12/10 21:28:18;;;;;;;36.23;20.83;;;;;;;;;;6224978;23;20444;-82
2021/12/10 21:30:57;;;;;;;33.67;19.88;;;;;;;;;;6223789;23;20378;-82
2021/12/10 21:33:35;;;;;;;43.30;22.95;;;;;;;;;;6221824;23;20874;-82
2021/12/10 21:36:11;;;;;;;68.65;28.30;;;;;;;;;;6200625;23;20576;-80
2021/12/10 21:38:41;;;;;;;58.30;27.48;;;;;;;;;;6223672;23;20413;-82
2021/12/10 21:41:07;;;;;;;54.85;26.65;;;;;;;;;;6225996;23;20386;-82
2021/12/10 21:43:43;;;;;;;55.70;26.25;;;;;;;;;;6225382;23;20720;-82
2021/12/10 21:46:09;;;;;;;48.50;25.27;;;;;;;;;;6224848;23;20381;-82
2021/12/10 21:48:36;;;;;;;53.88;27.20;;;;;;;;;;6201097;23;20370;-82
2021/12/10 21:51:16;;;;;;;47.90;27.10;;;;;;;;;;6224937;23;20373;-83
2021/12/10 21:53:42;;;;;;;49.47;27.27;;;;;;;;;;6220325;23;20395;-82
2021/12/10 21:56:12;;;;;;;44.92;24.65;;;;;;;;;;6219439;23;20477;-82
2021/12/10 21:58:48;;;;;;;46.25;24.95;;;;;;;;;;6220330;23;20453;-82
2021/12/10 22:01:18;;;;;;;42.17;22.45;;;;;;;;;;6220904;23;20923;-82
2021/12/10 22:03:52;;;;;;;38.83;21.63;;;;;;;;;;6194151;23;20374;-82
2021/12/10 22:06:21;;;;;;;37.80;22.05;;;;;;;;;;6220689;23;20406;-82
2021/12/10 22:08:56;;;;;;;36.10;21.67;;;;;;;;;;6218363;23;20376;-82
2021/12/10 22:11:28;;;;;;;34.70;20.63;;;;;;;;;;6220109;23;20523;-83
2021/12/10 22:13:57;;;;;;;37.53;21.35;;;;;;;;;;6219170;23;20416;-82
2021/12/10 22:16:23;;;;;;;37.28;20.95;;;;;;;;;;6194719;23;20380;-82
2021/12/10 22:18:53;;;;;;;34.90;20.58;;;;;;;;;;6220451;23;20411;-83
2021/12/10 22:21:25;;;;;;;38.28;21.70;;;;;;;;;;6219059;23;20380;-82
2021/12/10 22:23:56;;;;;;;39.55;21.80;;;;;;;;;;6219685;23;20484;-81
2021/12/10 22:26:22;;;;;;;37.75;20.67;;;;;;;;;;6194842;23;20847;-82
2021/12/10 22:28:54;;;;;;;35.92;20.75;;;;;;;;;;6194656;23;20372;-81
2021/12/10 22:31:25;;;;;;;33.83;19.93;;;;;;;;;;6219556;23;20388;-82
2021/12/10 22:33:54;;;;;;;35.28;19.75;;;;;;;;;;6218956;23;20391;-81
2021/12/10 22:36:24;;;;;;;35.83;20.40;;;;;;;;;;6220372;23;20403;-82
2021/12/10 22:38:58;;;;;;;37.28;20.30;;;;;;;;;;6220933;23;20403;-82
2021/12/10 22:41:32;;;;;;;34.10;20.52;;;;;;;;;;6219931;23;20378;-82
2021/12/10 22:44:00;;;;;;;35.20;21.05;;;;;;;;;;6221314;23;20450;-82
2021/12/10 22:46:31;;;;;;;36.20;20.90;;;;;;;;;;6219088;23;20381;-82
2021/12/10 22:49:00;;;;;;;30.73;18.67;;;;;;;;;;6220197;23;20863;-82
2021/12/10 22:51:28;;;;;;;31.95;19.67;;;;;;;;;;6193668;23;20376;-81
2021/12/10 22:54:00;;;;;;;33.83;21.35;;;;;;;;;;6219173;23;20387;-82
2021/12/10 22:56:29;;;;;;;37.30;22.23;;;;;;;;;;6193284;23;20802;-82
2021/12/10 22:58:59;;;;;;;35.95;21.30;;;;;;;;;;6219289;23;20901;-82
2021/12/10 23:01:34;;;;;;;38.15;22.08;;;;;;;;;;6194515;23;20437;-81
2021/12/10 23:04:08;;;;;;;35.70;22.08;;;;;;;;;;6218701;23;20926;-82
2021/12/10 23:06:38;;;;;;;37.03;22.73;;;;;;;;;;6219697;23;20492;-82
2021/12/10 23:11:43;;;;;;;32.55;20.40;;;;;;;;;;6224089;23;20429;-83
2021/12/10 23:14:12;;;;;;;32.97;20.58;;;;;;;;;;6221852;23;20367;-82
2021/12/10 23:16:41;;;;;;;33.78;19.77;;;;;;;;;;6219232;23;20954;-81
2021/12/10 23:19:12;;;;;;;30.10;19.27;;;;;;;;;;6220750;23;20480;-82
2021/12/10 23:21:47;;;;;;;29.45;19.27;;;;;;;;;;6193974;23;20371;-82
2021/12/10 23:24:27;;;;;;;32.90;19.40;;;;;;;;;;6219095;23;20492;-83
2021/12/10 23:27:12;;;;;;;32.10;18.98;;;;;;;;;;6219862;23;20386;-82
2021/12/10 23:29:53;;;;;;;31.80;18.77;;;;;;;;;;6192855;23;20446;-83
2021/12/10 23:32:35;;;;;;;28.40;17.65;;;;;;;;;;6220099;23;20418;-82
2021/12/10 23:35:08;;;;;;;24.53;16.20;;;;;;;;;;6219028;23;20432;-82
2021/12/10 23:37:35;;;;;;;26.33;16.88;;;;;;;;;;6193667;23;20497;-82
2021/12/10 23:40:14;;;;;;;28.33;17.85;;;;;;;;;;6219418;23;20368;-82
2021/12/10 23:42:42;;;;;;;27.25;16.90;;;;;;;;;;6218084;23;20396;-82
2021/12/10 23:45:11;;;;;;;26.20;17.10;;;;;;;;;;6193638;23;20383;-83
2021/12/10 23:47:39;;;;;;;28.40;16.95;;;;;;;;;;6218516;23;20426;-82
2021/12/10 23:50:11;;;;;;;25.45;17.08;;;;;;;;;;6219393;23;20370;-83
2021/12/10 23:52:39;;;;;;;27.83;17.90;;;;;;;;;;6218946;23;20412;-82
2021/12/10 23:55:09;;;;;;;28.20;17.73;;;;;;;;;;6199109;23;20381;-82
2021/12/10 23:57:42;;;;;;;29.63;17.53;;;;;;;;;;6199708;23;20463;-82
